createdAt,value
2019-02-18T00:00:38.640Z,12.00
2019-02-18T00:03:09.528Z,10.90
2019-02-18T00:05:40.489Z,10.87
2019-02-18T00:08:11.554Z,9.40
2019-02-18T00:10:42.408Z,10.63
2019-02-18T00:13:13.054Z,11.13
2019-02-18T00:15:44.337Z,10.80
2019-02-18T00:18:14.905Z,10.33
2019-02-18T00:20:45.758Z,10.10
2019-02-18T00:23:16.358Z,10.07
2019-02-18T00:25:46.951Z,9.73
2019-02-18T00:28:18.144Z,10.33
2019-02-18T00:30:48.706Z,10.30
2019-02-18T00:33:20.898Z,9.90
2019-02-18T00:35:51.789Z,11.13
2019-02-18T00:38:22.561Z,10.33
2019-02-18T00:40:53.226Z,9.73
2019-02-18T00:43:23.753Z,9.60
2019-02-18T00:45:54.563Z,10.10
2019-02-18T00:48:25.391Z,9.13
2019-02-18T00:50:56.194Z,9.90
2019-02-18T00:53:27.018Z,9.93
2019-02-18T00:55:57.775Z,10.23
2019-02-18T00:58:28.455Z,10.50
2019-02-18T01:00:59.092Z,9.70
2019-02-18T01:03:31.624Z,10.20
2019-02-18T01:06:02.356Z,9.00
2019-02-18T01:08:33.047Z,11.10
2019-02-18T01:11:04.361Z,9.87
2019-02-18T01:13:34.999Z,9.50
2019-02-18T01:16:05.844Z,10.37
2019-02-18T01:18:36.723Z,9.90
2019-02-18T01:21:07.600Z,8.50
2019-02-18T01:23:41.639Z,11.07
2019-02-18T01:26:12.354Z,10.10
2019-02-18T01:28:42.875Z,10.43
2019-02-18T01:31:13.591Z,9.73
2019-02-18T01:33:44.259Z,9.70
2019-02-18T01:36:14.916Z,9.80
2019-02-18T01:38:45.539Z,10.17
2019-02-18T01:41:16.255Z,9.53
2019-02-18T01:43:46.946Z,9.97
2019-02-18T01:46:17.606Z,9.73
2019-02-18T01:48:48.394Z,9.80
2019-02-18T01:51:19.383Z,9.33
2019-02-18T01:53:50.074Z,10.40
2019-02-18T01:56:20.945Z,11.53
2019-02-18T01:58:51.745Z,9.87
2019-02-18T02:01:22.643Z,9.77
2019-02-18T02:03:53.360Z,10.30
2019-02-18T02:06:24.006Z,9.60
2019-02-18T02:08:54.691Z,10.07
2019-02-18T02:11:25.407Z,11.20
2019-02-18T02:13:56.036Z,10.67
2019-02-18T02:16:27.459Z,10.40
2019-02-18T02:18:58.035Z,9.93
2019-02-18T02:21:28.654Z,11.00
2019-02-18T02:23:59.455Z,10.90
2019-02-18T02:26:30.174Z,10.63
2019-02-18T02:29:00.939Z,10.20
2019-02-18T02:31:31.494Z,9.60
2019-02-18T02:34:02.117Z,10.23
2019-02-18T02:36:33.364Z,10.17
2019-02-18T02:39:07.394Z,9.27
2019-02-18T02:41:38.032Z,11.03
2019-02-18T02:44:08.714Z,9.90
2019-02-18T02:46:39.360Z,9.27
2019-02-18T02:49:10.091Z,10.50
2019-02-18T02:51:40.777Z,9.60
2019-02-18T02:54:11.351Z,9.80
2019-02-18T02:56:41.976Z,10.20
2019-02-18T02:59:12.641Z,9.80
2019-02-18T03:01:43.210Z,10.13
2019-02-18T03:04:13.993Z,10.03
2019-02-18T03:06:44.612Z,9.00
2019-02-18T03:09:15.187Z,9.30
2019-02-18T03:11:45.750Z,9.50
2019-02-18T03:14:16.708Z,8.97
2019-02-18T03:16:47.548Z,10.37
2019-02-18T03:19:18.178Z,10.03
2019-02-18T03:21:48.862Z,10.03
2019-02-18T03:24:19.758Z,10.47
2019-02-18T03:26:50.523Z,10.67
2019-02-18T03:30:01.481Z,11.33
2019-02-18T03:32:35.912Z,10.27
2019-02-18T03:35:06.760Z,10.90
2019-02-18T03:37:37.483Z,9.30
2019-02-18T03:40:08.080Z,10.23
2019-02-18T03:42:38.976Z,10.50
2019-02-18T03:45:09.821Z,10.43
2019-02-18T03:47:40.443Z,10.90
2019-02-18T03:50:11.126Z,10.73
2019-02-18T03:52:41.679Z,10.23
2019-02-18T03:55:12.404Z,10.47
2019-02-18T03:57:43.121Z,10.40
2019-02-18T04:00:14.189Z,10.40
2019-02-18T04:02:44.784Z,10.37
2019-02-18T04:05:15.603Z,10.70
2019-02-18T04:07:46.336Z,11.00
2019-02-18T04:10:17.082Z,9.53
2019-02-18T04:12:47.779Z,10.30
2019-02-18T04:15:18.434Z,10.33
2019-02-18T04:17:49.031Z,9.70
2019-02-18T04:20:19.581Z,10.63
2019-02-18T04:22:50.488Z,11.43
2019-02-18T04:25:21.029Z,10.80
2019-02-18T04:27:51.644Z,9.80
2019-02-18T04:30:22.247Z,10.53
2019-02-18T04:32:52.998Z,11.40
2019-02-18T04:35:23.603Z,10.67
2019-02-18T04:37:54.143Z,11.37
2019-02-18T04:40:24.747Z,10.53
2019-02-18T04:42:55.647Z,10.73
2019-02-18T04:45:26.597Z,11.30
2019-02-18T04:47:57.264Z,10.40
2019-02-18T04:50:27.860Z,10.80
2019-02-18T04:52:58.572Z,10.80
2019-02-18T04:55:29.594Z,10.10
2019-02-18T04:58:00.434Z,10.60
2019-02-18T05:00:31.123Z,10.27
2019-02-18T05:03:01.753Z,11.40
2019-02-18T05:05:32.416Z,9.50
2019-02-18T05:08:03.253Z,10.53
2019-02-18T05:10:33.850Z,9.97
2019-02-18T05:13:04.707Z,10.70
2019-02-18T05:15:35.419Z,10.40
2019-02-18T05:18:06.035Z,10.10
2019-02-18T05:20:36.587Z,10.53
2019-02-18T05:23:07.141Z,11.07
2019-02-18T05:25:37.729Z,10.67
2019-02-18T05:28:08.332Z,10.07
2019-02-18T05:30:40.503Z,10.03
2019-02-18T05:33:11.415Z,10.40
2019-02-18T05:35:43.799Z,11.00
2019-02-18T05:38:14.431Z,10.20
2019-02-18T05:40:45.118Z,11.83
2019-02-18T05:43:20.713Z,10.23
2019-02-18T05:45:51.656Z,9.00
2019-02-18T05:48:22.340Z,9.83
2019-02-18T05:50:53.031Z,10.63
2019-02-18T05:53:23.597Z,10.87
2019-02-18T05:55:54.419Z,11.17
2019-02-18T05:58:25.010Z,11.50
2019-02-18T06:00:57.344Z,11.00
2019-02-18T06:03:28.078Z,10.37
2019-02-18T06:05:59.221Z,10.73
2019-02-18T06:08:29.784Z,11.33
2019-02-18T06:11:01.243Z,11.40
2019-02-18T06:13:31.915Z,12.40
2019-02-18T06:16:02.560Z,11.87
2019-02-18T06:18:33.221Z,11.50
2019-02-18T06:21:06.910Z,10.90
2019-02-18T06:23:37.518Z,12.10
2019-02-18T06:26:08.112Z,10.90
2019-02-18T06:28:38.913Z,12.40
2019-02-18T06:31:09.525Z,11.43
2019-02-18T06:33:40.382Z,13.93
2019-02-18T06:36:11.213Z,11.67
2019-02-18T06:38:41.858Z,13.33
2019-02-18T06:41:12.710Z,12.20
2019-02-18T06:43:43.323Z,12.77
2019-02-18T06:46:39.157Z,13.20
2019-02-18T06:49:21.387Z,12.47
2019-02-18T06:51:52.071Z,11.87
2019-02-18T06:54:22.754Z,13.23
2019-02-18T06:57:18.658Z,10.93
2019-02-18T06:59:52.802Z,11.93
2019-02-18T07:02:30.348Z,11.30
2019-02-18T07:05:12.092Z,13.13
2019-02-18T07:07:48.731Z,12.07
2019-02-18T07:10:25.349Z,12.23
2019-02-18T07:12:55.956Z,13.20
2019-02-18T07:15:26.605Z,12.00
2019-02-18T07:17:57.242Z,12.03
2019-02-18T07:20:27.952Z,12.43
2019-02-18T07:22:58.656Z,13.77
2019-02-18T07:25:29.334Z,12.63
2019-02-18T07:27:59.955Z,11.93
2019-02-18T07:30:30.548Z,11.60
2019-02-18T07:33:01.305Z,12.20
2019-02-18T07:35:32.048Z,11.30
2019-02-18T07:38:02.618Z,12.63
2019-02-18T07:40:35.864Z,11.80
2019-02-18T07:43:06.783Z,12.23
2019-02-18T07:45:37.430Z,12.47
2019-02-18T07:48:08.057Z,12.23
2019-02-18T07:50:40.231Z,11.17
2019-02-18T07:53:11.122Z,12.83
2019-02-18T07:55:41.812Z,12.97
2019-02-18T07:58:12.532Z,12.40
2019-02-18T08:00:43.227Z,12.00
2019-02-18T08:03:13.933Z,12.93
2019-02-18T08:05:44.747Z,12.57
2019-02-18T08:08:15.414Z,12.90
2019-02-18T08:10:46.103Z,13.47
2019-02-18T08:13:16.918Z,12.90
2019-02-18T08:15:47.679Z,13.10
2019-02-18T08:18:18.307Z,12.40
2019-02-18T08:20:51.307Z,12.47
2019-02-18T08:23:21.209Z,13.50
2019-02-18T08:25:52.105Z,13.60
2019-02-18T08:28:22.728Z,13.47
2019-02-18T08:30:53.411Z,12.60
2019-02-18T08:33:24.039Z,13.73
2019-02-18T08:35:54.737Z,12.53
2019-02-18T08:38:25.461Z,13.10
2019-02-18T08:40:56.169Z,12.67
2019-02-18T08:43:26.812Z,12.80
2019-02-18T08:45:57.473Z,13.03
2019-02-18T08:48:28.123Z,14.20
2019-02-18T08:50:58.811Z,13.20
2019-02-18T08:53:29.458Z,13.43
2019-02-18T08:56:00.101Z,13.33
2019-02-18T08:58:30.711Z,11.90
2019-02-18T09:01:03.034Z,13.07
2019-02-18T09:03:33.886Z,13.20
2019-02-18T09:06:04.536Z,12.57
2019-02-18T09:08:35.255Z,12.70
2019-02-18T09:11:05.904Z,11.80
2019-02-18T09:13:36.534Z,12.60
2019-02-18T09:16:07.172Z,12.33
2019-02-18T09:18:37.902Z,11.93
2019-02-18T09:21:08.504Z,12.50
2019-02-18T09:24:01.908Z,12.53
2019-02-18T09:26:32.808Z,13.20
2019-02-18T09:29:03.493Z,12.70
2019-02-18T09:31:36.447Z,13.03
2019-02-18T09:34:07.892Z,13.13
2019-02-18T09:36:38.651Z,12.43
2019-02-18T09:39:16.992Z,11.97
2019-02-18T09:41:47.748Z,12.10
2019-02-18T09:44:18.538Z,13.17
2019-02-18T09:46:53.418Z,12.50
2019-02-18T09:49:24.155Z,12.77
2019-02-18T09:51:55.011Z,14.03
2019-02-18T09:54:28.134Z,14.30
2019-02-18T09:56:58.126Z,13.00
2019-02-18T09:59:28.808Z,14.13
2019-02-18T10:01:59.463Z,12.87
2019-02-18T10:04:30.174Z,13.87
2019-02-18T10:07:00.715Z,13.37
2019-02-18T10:09:31.413Z,13.93
2019-02-18T10:12:02.100Z,14.33
2019-02-18T10:14:32.784Z,14.30
2019-02-18T10:17:03.589Z,14.60
2019-02-18T10:19:34.583Z,12.90
2019-02-18T10:22:05.463Z,15.20
2019-02-18T10:24:36.299Z,13.60
2019-02-18T10:27:07.017Z,13.87
2019-02-18T10:29:38.302Z,14.60
2019-02-18T10:32:09.104Z,13.70
2019-02-18T10:34:39.961Z,13.53
2019-02-18T10:37:10.650Z,12.17
2019-02-18T10:39:41.383Z,13.90
2019-02-18T10:42:14.327Z,12.43
2019-02-18T10:44:45.194Z,13.23
2019-02-18T10:47:15.938Z,12.63
2019-02-18T10:49:46.926Z,12.57
2019-02-18T10:52:17.525Z,12.00
2019-02-18T10:54:49.655Z,13.03
2019-02-18T10:57:20.779Z,12.17
2019-02-18T10:59:51.939Z,11.90
2019-02-18T11:02:22.730Z,13.40
2019-02-18T11:04:53.519Z,13.10
2019-02-18T11:07:24.492Z,11.43
2019-02-18T11:09:55.225Z,11.73
2019-02-18T11:12:25.861Z,12.77
2019-02-18T11:14:56.451Z,11.83
2019-02-18T11:17:27.126Z,12.53
2019-02-18T11:19:57.795Z,12.53
2019-02-18T11:22:28.672Z,12.30
2019-02-18T11:24:59.490Z,12.80
2019-02-18T11:27:30.432Z,12.20
2019-02-18T11:30:01.180Z,11.80
2019-02-18T11:32:31.811Z,12.47
2019-02-18T11:35:02.567Z,12.13
2019-02-18T11:37:33.419Z,12.77
2019-02-18T11:40:04.258Z,11.57
2019-02-18T11:42:37.328Z,10.60
2019-02-18T11:45:09.300Z,13.10
2019-02-18T11:47:39.887Z,12.97
2019-02-18T11:50:14.262Z,12.77
2019-02-18T11:52:44.986Z,11.20
2019-02-18T11:55:15.681Z,12.40
2019-02-18T11:57:47.016Z,11.80
2019-02-18T12:00:17.812Z,11.10
2019-02-18T12:02:48.657Z,11.53
2019-02-18T12:05:19.370Z,11.57
2019-02-18T12:07:52.525Z,11.70
2019-02-18T12:10:23.505Z,12.50
2019-02-18T12:12:55.888Z,10.40
2019-02-18T12:15:26.718Z,12.60
2019-02-18T12:17:57.378Z,12.70
2019-02-18T12:20:28.062Z,11.60
2019-02-18T12:22:58.827Z,12.23
2019-02-18T12:25:29.518Z,11.10
2019-02-18T12:28:00.181Z,12.00
2019-02-18T12:30:32.526Z,12.40
2019-02-18T12:33:03.399Z,12.10
2019-02-18T12:35:34.152Z,11.40
2019-02-18T12:38:06.084Z,12.30
2019-02-18T12:40:36.760Z,13.00
2019-02-18T12:43:07.595Z,10.90
2019-02-18T12:45:38.229Z,11.73
2019-02-18T12:48:08.959Z,10.47
2019-02-18T12:50:40.041Z,10.60
2019-02-18T12:53:12.808Z,12.33
2019-02-18T12:55:43.458Z,11.80
2019-02-18T12:58:14.406Z,12.20
2019-02-18T13:00:45.114Z,11.97
2019-02-18T13:03:15.909Z,12.70
2019-02-18T13:05:46.919Z,11.70
2019-02-18T13:08:17.650Z,10.97
2019-02-18T13:10:48.450Z,11.77
2019-02-18T13:13:19.355Z,11.03
2019-02-18T13:15:50.838Z,11.50
2019-02-18T13:18:21.609Z,11.10
2019-02-18T13:20:52.750Z,11.93
2019-02-18T13:23:23.525Z,12.30
2019-02-18T13:25:54.509Z,10.40
2019-02-18T13:28:25.142Z,11.10
2019-02-18T13:30:56.191Z,11.90
2019-02-18T13:33:27.023Z,12.40
2019-02-18T13:35:57.821Z,11.33
2019-02-18T13:38:28.521Z,11.17
2019-02-18T13:40:59.238Z,12.63
2019-02-18T13:43:30.835Z,12.00
2019-02-18T13:46:03.293Z,12.00
2019-02-18T13:48:34.326Z,11.90
2019-02-18T13:51:05.381Z,12.20
2019-02-18T13:53:36.027Z,12.17
2019-02-18T13:56:07.767Z,12.33
2019-02-18T13:58:38.554Z,12.20
2019-02-18T14:01:09.621Z,11.10
2019-02-18T14:03:40.303Z,11.67
2019-02-18T14:06:11.100Z,11.30
2019-02-18T14:08:42.375Z,11.03
2019-02-18T14:11:13.180Z,11.63
2019-02-18T14:13:43.910Z,12.57
2019-02-18T14:16:14.750Z,13.00
2019-02-18T14:18:46.466Z,12.87
2019-02-18T14:21:18.573Z,11.70
2019-02-18T14:23:51.389Z,12.23
2019-02-18T14:26:22.841Z,13.10
2019-02-18T14:28:53.538Z,12.40
2019-02-18T14:31:25.832Z,11.63
2019-02-18T14:33:56.650Z,12.70
2019-02-18T14:36:29.169Z,12.40
2019-02-18T14:39:00.276Z,12.30
2019-02-18T14:41:31.062Z,12.27
2019-02-18T14:44:01.890Z,12.90
2019-02-18T14:46:32.695Z,12.93
2019-02-18T14:49:03.567Z,11.90
2019-02-18T14:51:34.269Z,12.03
2019-02-18T14:54:05.006Z,11.43
2019-02-18T14:56:35.821Z,12.60
2019-02-18T14:59:09.369Z,10.70
2019-02-18T15:01:42.433Z,10.83
2019-02-18T15:04:16.499Z,11.97
2019-02-18T15:06:55.939Z,13.33
2019-02-18T15:09:28.849Z,10.90
2019-02-18T15:11:59.505Z,10.70
2019-02-18T15:14:42.741Z,12.00
2019-02-18T15:17:13.412Z,10.93
2019-02-18T15:19:44.108Z,11.43
2019-02-18T15:22:16.820Z,11.83
2019-02-18T15:24:51.503Z,10.83
2019-02-18T15:27:25.350Z,12.00
2019-02-18T15:29:56.320Z,11.00
2019-02-18T15:32:29.642Z,13.07
2019-02-18T15:35:00.719Z,11.97
2019-02-18T15:37:33.378Z,10.73
2019-02-18T15:40:07.116Z,11.87
2019-02-18T15:42:42.605Z,11.20
2019-02-18T15:45:12.576Z,12.03
2019-02-18T15:47:43.634Z,10.73
2019-02-18T15:50:15.270Z,10.33
2019-02-18T15:52:46.315Z,10.70
2019-02-18T15:55:18.507Z,12.00
2019-02-18T15:57:49.879Z,10.70
2019-02-18T16:00:23.194Z,11.40
2019-02-18T16:02:53.944Z,9.63
2019-02-18T16:05:26.251Z,11.00
2019-02-18T16:07:57.016Z,10.67
2019-02-18T16:10:28.196Z,11.30
2019-02-18T16:12:58.815Z,11.90
2019-02-18T16:15:32.826Z,10.90
2019-02-18T16:18:03.590Z,11.40
2019-02-18T16:20:34.312Z,11.20
2019-02-18T16:23:04.998Z,10.80
2019-02-18T16:25:35.762Z,12.57
2019-02-18T16:28:06.866Z,11.83
2019-02-18T16:30:37.685Z,12.60
2019-02-18T16:33:08.522Z,10.90
2019-02-18T16:35:39.548Z,11.43
2019-02-18T16:38:10.279Z,11.83
2019-02-18T16:40:41.022Z,11.63
2019-02-18T16:43:11.853Z,11.30
2019-02-18T16:45:42.705Z,11.90
2019-02-18T16:48:14.053Z,10.77
2019-02-18T16:50:44.910Z,10.80
2019-02-18T16:53:15.719Z,11.67
2019-02-18T16:55:46.519Z,10.93
2019-02-18T16:58:19.029Z,12.30
2019-02-18T17:00:57.317Z,11.20
2019-02-18T17:03:22.583Z,10.63
2019-02-18T17:05:53.798Z,12.20
2019-02-18T17:08:24.359Z,10.43
2019-02-18T17:10:55.209Z,10.80
2019-02-18T17:13:32.338Z,10.03
2019-02-18T17:16:11.135Z,11.17
2019-02-18T17:18:38.619Z,10.40
2019-02-18T17:21:10.530Z,11.00
2019-02-18T17:23:41.433Z,11.50
2019-02-18T17:26:12.207Z,10.87
2019-02-18T17:28:43.184Z,12.57
2019-02-18T17:31:14.422Z,12.10
2019-02-18T17:33:45.197Z,11.93
2019-02-18T17:36:16.194Z,11.73
2019-02-18T17:38:47.176Z,11.30
2019-02-18T17:41:17.868Z,12.93
2019-02-18T17:43:52.325Z,12.83
2019-02-18T17:46:23.262Z,11.60
2019-02-18T17:48:54.276Z,11.50
2019-02-18T17:51:25.095Z,12.20
2019-02-18T17:53:56.089Z,11.80
2019-02-18T17:56:27.096Z,13.53
2019-02-18T17:59:01.370Z,13.17
2019-02-18T18:01:32.291Z,12.03
2019-02-18T18:04:12.548Z,12.77
2019-02-18T18:06:37.833Z,12.00
2019-02-18T18:09:32.643Z,12.47
2019-02-18T18:12:09.268Z,12.70
2019-02-18T18:14:48.539Z,11.30
2019-02-18T18:17:19.696Z,12.47
2019-02-18T18:19:50.643Z,11.70
2019-02-18T18:22:21.711Z,12.60
2019-02-18T18:24:52.716Z,12.53
2019-02-18T18:27:23.780Z,12.30
2019-02-18T18:29:56.313Z,12.00
2019-02-18T18:32:28.702Z,13.53
2019-02-18T18:35:00.100Z,13.70
2019-02-18T18:37:34.942Z,11.67
2019-02-18T18:40:09.143Z,12.47
2019-02-18T18:42:41.879Z,12.10
2019-02-18T18:45:15.535Z,12.63
2019-02-18T18:47:49.797Z,12.33
2019-02-18T18:50:21.185Z,13.03
2019-02-18T18:53:13.952Z,12.77
2019-02-18T18:55:44.725Z,11.90
2019-02-18T18:58:15.591Z,11.40
2019-02-18T19:00:46.605Z,11.17
2019-02-18T19:03:17.881Z,13.10
2019-02-18T19:05:49.079Z,11.77
2019-02-18T19:08:20.109Z,12.57
2019-02-18T19:10:51.256Z,12.03
2019-02-18T19:13:24.643Z,12.07
2019-02-18T19:16:01.073Z,13.10
2019-02-18T19:18:42.416Z,12.67
2019-02-18T19:21:25.154Z,12.57
2019-02-18T19:24:15.870Z,12.93
2019-02-18T19:26:46.962Z,12.30
2019-02-18T19:29:19.658Z,14.20
2019-02-18T19:31:55.900Z,12.43
2019-02-18T19:34:29.915Z,13.60
2019-02-18T19:37:01.529Z,12.23
2019-02-18T19:39:40.255Z,12.03
2019-02-18T19:42:13.340Z,13.30
2019-02-18T19:44:47.705Z,15.30
2019-02-18T19:47:22.540Z,11.37
2019-02-18T19:49:59.189Z,12.10
2019-02-18T19:52:32.715Z,11.73
2019-02-18T19:55:10.179Z,11.07
2019-02-18T19:57:41.100Z,10.80
2019-02-18T20:00:15.981Z,11.00
2019-02-18T20:02:49.903Z,10.93
2019-02-18T20:05:20.845Z,11.30
2019-02-18T20:07:55.912Z,11.60
2019-02-18T20:10:27.270Z,12.00
2019-02-18T20:13:04.143Z,12.20
2019-02-18T20:15:39.527Z,12.40
2019-02-18T20:18:13.828Z,12.80
2019-02-18T20:20:45.886Z,12.10
2019-02-18T20:23:21.564Z,11.97
2019-02-18T20:25:52.390Z,10.60
2019-02-18T20:28:29.087Z,10.20
2019-02-18T20:31:05.801Z,9.83
2019-02-18T20:33:44.147Z,11.27
2019-02-18T20:36:18.633Z,9.63
2019-02-18T20:38:52.602Z,10.10
2019-02-18T20:41:23.314Z,10.33
2019-02-18T20:43:54.521Z,9.33
2019-02-18T20:46:30.313Z,10.20
2019-02-18T20:49:02.801Z,10.93
2019-02-18T20:51:44.689Z,10.93
2019-02-18T20:54:19.698Z,11.03
2019-02-18T20:56:54.823Z,11.33
2019-02-18T20:59:29.512Z,10.77
2019-02-18T21:02:02.139Z,10.13
2019-02-18T21:04:33.251Z,11.10
2019-02-18T21:07:16.016Z,10.27
2019-02-18T21:09:46.881Z,11.10
2019-02-18T21:12:20.006Z,11.27
2019-02-18T21:14:58.520Z,10.77
2019-02-18T21:17:29.345Z,10.40
2019-02-18T21:20:01.585Z,10.90
2019-02-18T21:22:37.643Z,11.53
2019-02-18T21:25:16.484Z,10.57
2019-02-18T21:27:47.567Z,11.60
2019-02-18T21:30:18.410Z,10.90
2019-02-18T21:32:51.269Z,11.57
2019-02-18T21:35:28.231Z,11.53
2019-02-18T21:37:59.018Z,11.47
2019-02-18T21:40:41.726Z,10.90
2019-02-18T21:43:16.391Z,11.67
2019-02-18T21:45:47.505Z,11.87
2019-02-18T21:48:18.607Z,12.10
2019-02-18T21:50:49.539Z,11.70
2019-02-18T21:53:20.340Z,12.27
2019-02-18T21:55:54.042Z,12.20
2019-02-18T21:58:25.040Z,13.37
2019-02-18T22:00:59.590Z,12.40
2019-02-18T22:03:30.296Z,12.47
2019-02-18T22:06:01.860Z,12.50
2019-02-18T22:08:34.325Z,13.20
2019-02-18T22:11:05.758Z,13.10
2019-02-18T22:13:42.127Z,12.50
2019-02-18T22:16:15.400Z,11.10
2019-02-18T22:18:46.267Z,11.83
2019-02-18T22:21:20.436Z,12.60
2019-02-18T22:23:53.179Z,11.07
2019-02-18T22:26:27.162Z,11.90
2019-02-18T22:29:01.880Z,12.50
2019-02-18T22:31:32.760Z,13.13
2019-02-18T22:34:05.411Z,11.47
2019-02-18T22:36:39.595Z,13.57
2019-02-18T22:39:12.231Z,12.07
2019-02-18T22:41:45.122Z,12.07
2019-02-18T22:44:20.426Z,12.60
2019-02-18T22:46:54.156Z,11.50
2019-02-18T22:49:25.195Z,12.47
2019-02-18T22:51:56.294Z,12.90
2019-02-18T22:54:27.373Z,13.23
2019-02-18T22:56:58.619Z,12.70
2019-02-18T22:59:38.857Z,11.57
2019-02-18T23:02:11.638Z,12.13
2019-02-18T23:04:45.798Z,13.80
2019-02-18T23:07:16.920Z,11.93
2019-02-18T23:09:48.014Z,12.20
2019-02-18T23:12:18.878Z,13.30
2019-02-18T23:15:04.745Z,13.83
2019-02-18T23:17:37.431Z,12.53
2019-02-18T23:20:09.144Z,13.37
2019-02-18T23:22:40.347Z,13.53
2019-02-18T23:25:17.044Z,13.63
2019-02-18T23:27:47.972Z,12.70
2019-02-18T23:30:22.016Z,12.20
2019-02-18T23:32:56.022Z,12.10
2019-02-18T23:35:26.998Z,13.10
2019-02-18T23:37:58.113Z,13.80
2019-02-18T23:40:32.426Z,11.97
2019-02-18T23:43:03.120Z,11.87
2019-02-18T23:45:36.417Z,12.10
2019-02-18T23:48:07.496Z,11.90
2019-02-18T23:50:38.378Z,10.53
2019-02-18T23:53:11.688Z,11.00
2019-02-18T23:55:42.645Z,11.60
2019-02-18T23:58:13.417Z,10.57
